sensor_id;sensor_type;location;lat;lon;timestamp;temperature;humidity
29849;DHT22;16728;50.832;5.590;2022-07-23T00:01:18;19.60;99.90
29849;DHT22;16728;50.832;5.590;2022-07-23T00:04:28;19.60;99.90
29849;DHT22;16728;50.832;5.590;2022-07-23T00:07:30;19.70;99.90
29849;DHT22;16728;50.832;5.590;2022-07-23T00:10:32;19.60;99.90
29849;DHT22;16728;50.832;5.590;2022-07-23T00:13:34;19.50;99.90
29849;DHT22;16728;50.832;5.590;2022-07-23T00:16:36;19.60;99.90
29849;DHT22;16728;50.832;5.590;2022-07-23T00:19:38;19.50;99.90
29849;DHT22;16728;50.832;5.590;2022-07-23T00:22:51;19.50;99.90
29849;DHT22;16728;50.832;5.590;2022-07-23T00:25:53;19.50;99.90
29849;DHT22;16728;50.832;5.590;2022-07-23T00:28:55;19.40;99.90
29849;DHT22;16728;50.832;5.590;2022-07-23T00:31:57;19.30;99.90
29849;DHT22;16728;50.832;5.590;2022-07-23T00:34:59;19.40;99.90
29849;DHT22;16728;50.832;5.590;2022-07-23T00:38:02;19.30;99.90
29849;DHT22;16728;50.832;5.590;2022-07-23T00:41:04;19.40;99.90
29849;DHT22;16728;50.832;5.590;2022-07-23T00:44:16;19.30;99.90
29849;DHT22;16728;50.832;5.590;2022-07-23T00:47:18;19.30;99.90
29849;DHT22;16728;50.832;5.590;2022-07-23T00:50:20;19.30;99.90
29849;DHT22;16728;50.832;5.590;2022-07-23T00:53:24;19.30;99.90
29849;DHT22;16728;50.832;5.590;2022-07-23T00:56:26;19.30;99.90
29849;DHT22;16728;50.832;5.590;2022-07-23T00:59:28;19.30;99.90
29849;DHT22;16728;50.832;5.590;2022-07-23T01:02:30;19.10;99.90
29849;DHT22;16728;50.832;5.590;2022-07-23T01:05:32;19.20;99.90
29849;DHT22;16728;50.832;5.590;2022-07-23T01:08:34;19.30;99.90
29849;DHT22;16728;50.832;5.590;2022-07-23T01:11:37;19.20;99.90
29849;DHT22;16728;50.832;5.590;2022-07-23T01:14:39;19.10;99.90
29849;DHT22;16728;50.832;5.590;2022-07-23T01:17:41;19.10;99.90
29849;DHT22;16728;50.832;5.590;2022-07-23T01:20:42;19.00;99.90
29849;DHT22;16728;50.832;5.590;2022-07-23T01:23:44;19.10;99.90
29849;DHT22;16728;50.832;5.590;2022-07-23T01:26:47;19.10;99.90
29849;DHT22;16728;50.832;5.590;2022-07-23T01:29:49;19.00;99.90
29849;DHT22;16728;50.832;5.590;2022-07-23T01:32:51;19.00;99.90
29849;DHT22;16728;50.832;5.590;2022-07-23T01:35:55;18.80;99.90
29849;DHT22;16728;50.832;5.590;2022-07-23T01:38:57;18.80;99.90
29849;DHT22;16728;50.832;5.590;2022-07-23T01:41:59;18.80;99.90
29849;DHT22;16728;50.832;5.590;2022-07-23T01:45:02;18.70;99.90
29849;DHT22;16728;50.832;5.590;2022-07-23T01:48:05;18.60;99.90
29849;DHT22;16728;50.832;5.590;2022-07-23T01:51:11;18.60;99.90
29849;DHT22;16728;50.832;5.590;2022-07-23T01:54:13;18.60;99.90
29849;DHT22;16728;50.832;5.590;2022-07-23T01:57:15;18.60;99.90
29849;DHT22;16728;50.832;5.590;2022-07-23T02:00:24;18.60;99.90
29849;DHT22;16728;50.832;5.590;2022-07-23T02:03:26;18.60;99.90
29849;DHT22;16728;50.832;5.590;2022-07-23T02:06:28;18.50;99.90
29849;DHT22;16728;50.832;5.590;2022-07-23T02:09:30;18.60;99.90
29849;DHT22;16728;50.832;5.590;2022-07-23T02:12:32;18.50;99.90
29849;DHT22;16728;50.832;5.590;2022-07-23T02:15:35;18.50;99.90
29849;DHT22;16728;50.832;5.590;2022-07-23T02:18:37;18.50;99.90
29849;DHT22;16728;50.832;5.590;2022-07-23T02:21:39;18.40;99.90
29849;DHT22;16728;50.832;5.590;2022-07-23T02:24:41;18.40;99.90
29849;DHT22;16728;50.832;5.590;2022-07-23T02:27:43;18.40;99.90
29849;DHT22;16728;50.832;5.590;2022-07-23T02:30:45;18.30;99.90
29849;DHT22;16728;50.832;5.590;2022-07-23T02:33:46;18.30;99.90
29849;DHT22;16728;50.832;5.590;2022-07-23T02:36:48;18.30;99.90
29849;DHT22;16728;50.832;5.590;2022-07-23T02:39:50;18.20;99.90
29849;DHT22;16728;50.832;5.590;2022-07-23T02:42:52;18.30;99.90
29849;DHT22;16728;50.832;5.590;2022-07-23T02:45:54;18.20;99.90
29849;DHT22;16728;50.832;5.590;2022-07-23T02:48:56;18.10;99.90
29849;DHT22;16728;50.832;5.590;2022-07-23T02:51:58;18.20;99.90
29849;DHT22;16728;50.832;5.590;2022-07-23T02:55:00;18.20;99.90
29849;DHT22;16728;50.832;5.590;2022-07-23T02:58:02;18.20;99.90
29849;DHT22;16728;50.832;5.590;2022-07-23T03:01:05;18.10;99.90
29849;DHT22;16728;50.832;5.590;2022-07-23T03:04:06;18.20;99.90
29849;DHT22;16728;50.832;5.590;2022-07-23T03:07:08;18.20;99.90
29849;DHT22;16728;50.832;5.590;2022-07-23T03:10:10;18.20;99.90
29849;DHT22;16728;50.832;5.590;2022-07-23T03:13:12;18.10;99.90
29849;DHT22;16728;50.832;5.590;2022-07-23T03:16:14;18.00;99.90
29849;DHT22;16728;50.832;5.590;2022-07-23T03:19:16;18.10;99.90
29849;DHT22;16728;50.832;5.590;2022-07-23T03:22:18;18.10;99.90
29849;DHT22;16728;50.832;5.590;2022-07-23T03:25:20;18.10;99.90
29849;DHT22;16728;50.832;5.590;2022-07-23T03:28:22;17.90;99.90
29849;DHT22;16728;50.832;5.590;2022-07-23T03:31:24;17.90;99.90
29849;DHT22;16728;50.832;5.590;2022-07-23T03:34:26;17.90;99.90
29849;DHT22;16728;50.832;5.590;2022-07-23T03:37:28;17.90;99.90
29849;DHT22;16728;50.832;5.590;2022-07-23T03:40:30;17.90;99.90
29849;DHT22;16728;50.832;5.590;2022-07-23T03:43:32;17.90;99.90
29849;DHT22;16728;50.832;5.590;2022-07-23T03:46:34;17.90;99.90
29849;DHT22;16728;50.832;5.590;2022-07-23T03:49:36;17.80;99.90
29849;DHT22;16728;50.832;5.590;2022-07-23T03:52:38;17.90;99.90
29849;DHT22;16728;50.832;5.590;2022-07-23T03:55:40;17.70;99.90
29849;DHT22;16728;50.832;5.590;2022-07-23T03:58:42;17.70;99.90
29849;DHT22;16728;50.832;5.590;2022-07-23T04:01:44;17.70;99.90
29849;DHT22;16728;50.832;5.590;2022-07-23T04:04:46;17.60;99.90
29849;DHT22;16728;50.832;5.590;2022-07-23T04:07:48;17.70;99.90
29849;DHT22;16728;50.832;5.590;2022-07-23T04:10:50;17.60;99.90
29849;DHT22;16728;50.832;5.590;2022-07-23T04:13:52;17.70;99.90
29849;DHT22;16728;50.832;5.590;2022-07-23T04:16:54;17.80;99.90
29849;DHT22;16728;50.832;5.590;2022-07-23T04:19:56;17.70;99.90
29849;DHT22;16728;50.832;5.590;2022-07-23T04:22:57;17.70;99.90
29849;DHT22;16728;50.832;5.590;2022-07-23T04:25:59;17.60;99.90
29849;DHT22;16728;50.832;5.590;2022-07-23T04:29:01;17.60;99.90
29849;DHT22;16728;50.832;5.590;2022-07-23T04:32:05;17.60;99.90
29849;DHT22;16728;50.832;5.590;2022-07-23T04:35:07;17.60;99.90
29849;DHT22;16728;50.832;5.590;2022-07-23T04:38:09;17.60;99.90
29849;DHT22;16728;50.832;5.590;2022-07-23T04:41:11;17.60;99.90
29849;DHT22;16728;50.832;5.590;2022-07-23T04:44:13;17.70;99.90
29849;DHT22;16728;50.832;5.590;2022-07-23T04:47:15;17.70;99.90
29849;DHT22;16728;50.832;5.590;2022-07-23T04:53:39;17.70;99.90
29849;DHT22;16728;50.832;5.590;2022-07-23T04:56:41;17.70;99.90
29849;DHT22;16728;50.832;5.590;2022-07-23T04:59:44;17.90;99.90
29849;DHT22;16728;50.832;5.590;2022-07-23T05:02:46;17.80;99.90
29849;DHT22;16728;50.832;5.590;2022-07-23T05:05:49;17.80;99.90
29849;DHT22;16728;50.832;5.590;2022-07-23T05:08:51;17.90;99.90
29849;DHT22;16728;50.832;5.590;2022-07-23T05:11:53;17.90;99.90
29849;DHT22;16728;50.832;5.590;2022-07-23T05:14:55;17.80;99.90
29849;DHT22;16728;50.832;5.590;2022-07-23T05:17:57;17.90;99.90
29849;DHT22;16728;50.832;5.590;2022-07-23T05:20:59;17.90;99.90
29849;DHT22;16728;50.832;5.590;2022-07-23T05:24:00;17.90;99.90
29849;DHT22;16728;50.832;5.590;2022-07-23T05:27:02;17.90;99.90
29849;DHT22;16728;50.832;5.590;2022-07-23T05:30:05;17.90;99.90
29849;DHT22;16728;50.832;5.590;2022-07-23T05:33:07;18.00;99.90
29849;DHT22;16728;50.832;5.590;2022-07-23T05:36:10;17.90;99.90
29849;DHT22;16728;50.832;5.590;2022-07-23T05:39:12;17.90;99.90
29849;DHT22;16728;50.832;5.590;2022-07-23T05:42:14;18.00;99.90
29849;DHT22;16728;50.832;5.590;2022-07-23T05:45:16;18.00;99.90
29849;DHT22;16728;50.832;5.590;2022-07-23T05:48:18;18.00;99.90
29849;DHT22;16728;50.832;5.590;2022-07-23T05:51:21;17.90;99.90
29849;DHT22;16728;50.832;5.590;2022-07-23T05:54:23;18.00;99.90
29849;DHT22;16728;50.832;5.590;2022-07-23T05:57:25;18.00;99.90
29849;DHT22;16728;50.832;5.590;2022-07-23T06:00:28;18.10;99.90
29849;DHT22;16728;50.832;5.590;2022-07-23T06:03:30;18.00;99.90
29849;DHT22;16728;50.832;5.590;2022-07-23T06:06:32;18.10;99.90
29849;DHT22;16728;50.832;5.590;2022-07-23T06:09:33;18.20;99.90
29849;DHT22;16728;50.832;5.590;2022-07-23T06:12:36;18.20;99.90
29849;DHT22;16728;50.832;5.590;2022-07-23T06:15:38;18.20;99.90
29849;DHT22;16728;50.832;5.590;2022-07-23T06:18:40;18.30;99.90
29849;DHT22;16728;50.832;5.590;2022-07-23T06:21:41;18.20;99.90
29849;DHT22;16728;50.832;5.590;2022-07-23T06:24:48;18.30;99.90
29849;DHT22;16728;50.832;5.590;2022-07-23T06:27:51;18.30;99.90
29849;DHT22;16728;50.832;5.590;2022-07-23T06:30:53;18.30;99.90
29849;DHT22;16728;50.832;5.590;2022-07-23T06:33:55;18.30;99.90
29849;DHT22;16728;50.832;5.590;2022-07-23T06:36:57;18.40;99.90
29849;DHT22;16728;50.832;5.590;2022-07-23T06:40:00;18.40;99.90
29849;DHT22;16728;50.832;5.590;2022-07-23T06:43:03;18.40;99.90
29849;DHT22;16728;50.832;5.590;2022-07-23T06:46:05;18.50;99.90
29849;DHT22;16728;50.832;5.590;2022-07-23T06:49:07;18.60;99.90
29849;DHT22;16728;50.832;5.590;2022-07-23T06:52:09;18.60;99.90
29849;DHT22;16728;50.832;5.590;2022-07-23T06:55:11;18.60;99.90
29849;DHT22;16728;50.832;5.590;2022-07-23T06:58:13;18.70;99.90
29849;DHT22;16728;50.832;5.590;2022-07-23T07:01:15;18.70;99.90
29849;DHT22;16728;50.832;5.590;2022-07-23T07:04:18;18.80;99.90
29849;DHT22;16728;50.832;5.590;2022-07-23T07:07:20;18.80;99.90
29849;DHT22;16728;50.832;5.590;2022-07-23T07:10:21;18.90;99.90
29849;DHT22;16728;50.832;5.590;2022-07-23T07:13:23;18.90;99.90
29849;DHT22;16728;50.832;5.590;2022-07-23T07:16:25;19.00;99.90
29849;DHT22;16728;50.832;5.590;2022-07-23T07:19:33;19.10;99.90
29849;DHT22;16728;50.832;5.590;2022-07-23T07:22:35;19.20;99.90
29849;DHT22;16728;50.832;5.590;2022-07-23T07:25:37;19.10;99.90
29849;DHT22;16728;50.832;5.590;2022-07-23T07:28:39;19.20;99.90
29849;DHT22;16728;50.832;5.590;2022-07-23T07:31:40;19.20;99.90
29849;DHT22;16728;50.832;5.590;2022-07-23T07:34:43;19.30;99.90
29849;DHT22;16728;50.832;5.590;2022-07-23T07:37:44;19.30;99.90
29849;DHT22;16728;50.832;5.590;2022-07-23T07:40:46;19.40;99.90
29849;DHT22;16728;50.832;5.590;2022-07-23T07:43:50;19.40;99.90
29849;DHT22;16728;50.832;5.590;2022-07-23T07:46:52;19.50;99.90
29849;DHT22;16728;50.832;5.590;2022-07-23T07:49:54;19.50;99.90
29849;DHT22;16728;50.832;5.590;2022-07-23T07:52:58;19.70;99.90
29849;DHT22;16728;50.832;5.590;2022-07-23T07:56:00;19.70;99.90
29849;DHT22;16728;50.832;5.590;2022-07-23T07:59:02;19.80;99.90
29849;DHT22;16728;50.832;5.590;2022-07-23T08:02:04;19.80;99.90
29849;DHT22;16728;50.832;5.590;2022-07-23T08:05:07;19.80;99.90
29849;DHT22;16728;50.832;5.590;2022-07-23T08:08:09;19.90;99.90
29849;DHT22;16728;50.832;5.590;2022-07-23T08:11:16;19.90;99.90
29849;DHT22;16728;50.832;5.590;2022-07-23T08:14:18;20.00;99.90
29849;DHT22;16728;50.832;5.590;2022-07-23T08:17:20;20.00;99.90
29849;DHT22;16728;50.832;5.590;2022-07-23T08:20:23;20.20;99.90
29849;DHT22;16728;50.832;5.590;2022-07-23T08:23:25;20.40;99.90
29849;DHT22;16728;50.832;5.590;2022-07-23T08:26:31;20.40;99.90
29849;DHT22;16728;50.832;5.590;2022-07-23T08:29:33;20.40;99.90
29849;DHT22;16728;50.832;5.590;2022-07-23T08:32:48;20.40;99.90
29849;DHT22;16728;50.832;5.590;2022-07-23T08:35:51;20.50;99.90
29849;DHT22;16728;50.832;5.590;2022-07-23T08:38:54;20.50;99.90
29849;DHT22;16728;50.832;5.590;2022-07-23T08:41:56;20.60;99.90
29849;DHT22;16728;50.832;5.590;2022-07-23T08:44:58;20.60;99.90
29849;DHT22;16728;50.832;5.590;2022-07-23T08:47:59;20.70;99.90
29849;DHT22;16728;50.832;5.590;2022-07-23T08:51:06;20.70;99.90
29849;DHT22;16728;50.832;5.590;2022-07-23T08:54:09;20.80;99.90
29849;DHT22;16728;50.832;5.590;2022-07-23T08:57:11;20.80;99.90
29849;DHT22;16728;50.832;5.590;2022-07-23T09:00:13;20.80;99.90
29849;DHT22;16728;50.832;5.590;2022-07-23T09:03:21;20.90;99.90
29849;DHT22;16728;50.832;5.590;2022-07-23T09:06:23;21.00;99.90
29849;DHT22;16728;50.832;5.590;2022-07-23T09:09:24;21.10;99.90
29849;DHT22;16728;50.832;5.590;2022-07-23T09:12:31;21.10;99.90
29849;DHT22;16728;50.832;5.590;2022-07-23T09:15:33;21.10;99.90
29849;DHT22;16728;50.832;5.590;2022-07-23T09:19:02;21.30;99.90
29849;DHT22;16728;50.832;5.590;2022-07-23T09:22:25;21.40;99.90
29849;DHT22;16728;50.832;5.590;2022-07-23T09:25:33;21.40;99.90
29849;DHT22;16728;50.832;5.590;2022-07-23T09:28:54;21.40;99.90
29849;DHT22;16728;50.832;5.590;2022-07-23T09:31:58;21.40;99.90
29849;DHT22;16728;50.832;5.590;2022-07-23T09:35:10;21.40;99.90
29849;DHT22;16728;50.832;5.590;2022-07-23T09:38:12;21.40;99.90
29849;DHT22;16728;50.832;5.590;2022-07-23T09:41:16;21.40;99.90
29849;DHT22;16728;50.832;5.590;2022-07-23T09:44:20;21.50;99.90
29849;DHT22;16728;50.832;5.590;2022-07-23T09:47:30;21.60;99.90
29849;DHT22;16728;50.832;5.590;2022-07-23T09:50:32;21.60;99.90
29849;DHT22;16728;50.832;5.590;2022-07-23T09:53:34;21.70;99.90
29849;DHT22;16728;50.832;5.590;2022-07-23T09:56:36;21.80;99.90
29849;DHT22;16728;50.832;5.590;2022-07-23T09:59:39;21.90;99.90
29849;DHT22;16728;50.832;5.590;2022-07-23T10:02:41;22.00;99.90
29849;DHT22;16728;50.832;5.590;2022-07-23T10:05:50;22.00;99.90
29849;DHT22;16728;50.832;5.590;2022-07-23T10:08:51;22.00;99.90
29849;DHT22;16728;50.832;5.590;2022-07-23T10:12:09;22.00;99.90
29849;DHT22;16728;50.832;5.590;2022-07-23T10:15:27;22.00;99.90
29849;DHT22;16728;50.832;5.590;2022-07-23T10:18:30;21.90;99.90
29849;DHT22;16728;50.832;5.590;2022-07-23T10:21:41;22.00;99.90
29849;DHT22;16728;50.832;5.590;2022-07-23T10:35:02;22.30;99.90
29849;DHT22;16728;50.832;5.590;2022-07-23T10:38:27;22.30;99.90
29849;DHT22;16728;50.832;5.590;2022-07-23T10:41:51;22.60;99.90
29849;DHT22;16728;50.832;5.590;2022-07-23T10:44:54;22.60;99.90
29849;DHT22;16728;50.832;5.590;2022-07-23T10:51:15;22.60;99.90
29849;DHT22;16728;50.832;5.590;2022-07-23T10:54:21;22.60;99.90
29849;DHT22;16728;50.832;5.590;2022-07-23T10:57:25;22.60;99.90
29849;DHT22;16728;50.832;5.590;2022-07-23T11:00:29;22.60;99.90
29849;DHT22;16728;50.832;5.590;2022-07-23T11:03:34;22.60;99.90
29849;DHT22;16728;50.832;5.590;2022-07-23T11:10:02;22.70;99.90
29849;DHT22;16728;50.832;5.590;2022-07-23T11:16:25;22.80;99.90
29849;DHT22;16728;50.832;5.590;2022-07-23T11:19:28;22.90;99.90
29849;DHT22;16728;50.832;5.590;2022-07-23T11:22:40;22.90;99.90
29849;DHT22;16728;50.832;5.590;2022-07-23T11:25:47;22.90;99.90
29849;DHT22;16728;50.832;5.590;2022-07-23T11:28:52;22.90;99.90
29849;DHT22;16728;50.832;5.590;2022-07-23T11:32:02;22.90;99.90
29849;DHT22;16728;50.832;5.590;2022-07-23T11:35:22;22.90;99.90
29849;DHT22;16728;50.832;5.590;2022-07-23T11:38:25;22.90;99.90
29849;DHT22;16728;50.832;5.590;2022-07-23T11:41:26;23.00;99.90
29849;DHT22;16728;50.832;5.590;2022-07-23T11:44:31;23.20;99.90
29849;DHT22;16728;50.832;5.590;2022-07-23T11:47:33;23.30;99.90
29849;DHT22;16728;50.832;5.590;2022-07-23T11:50:39;23.30;99.90
29849;DHT22;16728;50.832;5.590;2022-07-23T11:53:45;23.20;99.90
29849;DHT22;16728;50.832;5.590;2022-07-23T11:56:57;23.20;99.50
29849;DHT22;16728;50.832;5.590;2022-07-23T12:00:07;23.20;99.50
29849;DHT22;16728;50.832;5.590;2022-07-23T12:03:10;23.20;98.90
29849;DHT22;16728;50.832;5.590;2022-07-23T12:06:12;23.30;98.90
29849;DHT22;16728;50.832;5.590;2022-07-23T12:09:14;23.30;98.60
29849;DHT22;16728;50.832;5.590;2022-07-23T12:12:16;23.30;97.30
29849;DHT22;16728;50.832;5.590;2022-07-23T12:15:21;23.30;97.80
29849;DHT22;16728;50.832;5.590;2022-07-23T12:18:25;23.40;98.20
29849;DHT22;16728;50.832;5.590;2022-07-23T12:21:28;23.50;98.10
29849;DHT22;16728;50.832;5.590;2022-07-23T12:24:30;23.50;97.30
29849;DHT22;16728;50.832;5.590;2022-07-23T12:27:32;23.60;97.50
29849;DHT22;16728;50.832;5.590;2022-07-23T12:33:40;23.90;97.10
29849;DHT22;16728;50.832;5.590;2022-07-23T12:36:43;23.90;97.10
29849;DHT22;16728;50.832;5.590;2022-07-23T12:39:46;24.00;97.10
29849;DHT22;16728;50.832;5.590;2022-07-23T12:42:50;24.10;96.80
29849;DHT22;16728;50.832;5.590;2022-07-23T12:45:54;24.10;96.70
29849;DHT22;16728;50.832;5.590;2022-07-23T12:48:57;24.10;96.70
29849;DHT22;16728;50.832;5.590;2022-07-23T12:52:00;24.00;96.80
29849;DHT22;16728;50.832;5.590;2022-07-23T12:55:03;23.90;96.70
29849;DHT22;16728;50.832;5.590;2022-07-23T12:58:08;24.00;96.90
29849;DHT22;16728;50.832;5.590;2022-07-23T13:04:28;24.10;96.70
29849;DHT22;16728;50.832;5.590;2022-07-23T13:07:30;24.10;97.60
29849;DHT22;16728;50.832;5.590;2022-07-23T13:10:31;24.30;96.90
29849;DHT22;16728;50.832;5.590;2022-07-23T13:13:34;24.30;95.90
29849;DHT22;16728;50.832;5.590;2022-07-23T13:16:37;24.40;95.80
29849;DHT22;16728;50.832;5.590;2022-07-23T13:19:39;24.40;96.20
29849;DHT22;16728;50.832;5.590;2022-07-23T13:22:41;24.50;96.60
29849;DHT22;16728;50.832;5.590;2022-07-23T13:25:44;24.50;96.60
29849;DHT22;16728;50.832;5.590;2022-07-23T13:28:47;24.50;97.00
29849;DHT22;16728;50.832;5.590;2022-07-23T13:31:49;24.50;97.10
29849;DHT22;16728;50.832;5.590;2022-07-23T13:34:51;24.60;96.50
29849;DHT22;16728;50.832;5.590;2022-07-23T13:37:53;24.50;96.60
29849;DHT22;16728;50.832;5.590;2022-07-23T13:40:56;24.50;96.40
29849;DHT22;16728;50.832;5.590;2022-07-23T13:44:00;24.50;96.40
29849;DHT22;16728;50.832;5.590;2022-07-23T13:47:03;24.40;96.70
29849;DHT22;16728;50.832;5.590;2022-07-23T13:50:06;24.30;96.30
29849;DHT22;16728;50.832;5.590;2022-07-23T13:53:12;24.40;97.00
29849;DHT22;16728;50.832;5.590;2022-07-23T13:56:14;24.50;96.10
29849;DHT22;16728;50.832;5.590;2022-07-23T13:59:16;24.60;96.00
29849;DHT22;16728;50.832;5.590;2022-07-23T14:02:18;24.70;96.00
29849;DHT22;16728;50.832;5.590;2022-07-23T14:05:26;24.60;95.90
29849;DHT22;16728;50.832;5.590;2022-07-23T14:08:28;24.70;96.60
29849;DHT22;16728;50.832;5.590;2022-07-23T14:11:30;24.80;96.00
29849;DHT22;16728;50.832;5.590;2022-07-23T14:14:33;24.90;96.00
29849;DHT22;16728;50.832;5.590;2022-07-23T14:17:39;24.90;95.90
29849;DHT22;16728;50.832;5.590;2022-07-23T14:20:41;24.90;95.80
29849;DHT22;16728;50.832;5.590;2022-07-23T14:23:43;24.90;95.20
29849;DHT22;16728;50.832;5.590;2022-07-23T14:26:45;25.00;95.10
29849;DHT22;16728;50.832;5.590;2022-07-23T14:29:48;25.00;94.90
29849;DHT22;16728;50.832;5.590;2022-07-23T14:32:50;25.10;94.30
29849;DHT22;16728;50.832;5.590;2022-07-23T14:35:52;25.10;94.30
29849;DHT22;16728;50.832;5.590;2022-07-23T14:38:55;25.10;94.10
29849;DHT22;16728;50.832;5.590;2022-07-23T14:42:18;25.20;94.30
29849;DHT22;16728;50.832;5.590;2022-07-23T14:45:20;25.20;94.10
29849;DHT22;16728;50.832;5.590;2022-07-23T14:48:22;25.20;94.10
29849;DHT22;16728;50.832;5.590;2022-07-23T14:51:24;25.20;93.60
29849;DHT22;16728;50.832;5.590;2022-07-23T14:54:28;25.20;94.00
29849;DHT22;16728;50.832;5.590;2022-07-23T14:57:30;25.20;94.10
29849;DHT22;16728;50.832;5.590;2022-07-23T15:00:31;25.30;94.00
29849;DHT22;16728;50.832;5.590;2022-07-23T15:03:34;25.30;93.80
29849;DHT22;16728;50.832;5.590;2022-07-23T15:06:43;25.30;93.20
29849;DHT22;16728;50.832;5.590;2022-07-23T15:09:48;25.30;93.10
29849;DHT22;16728;50.832;5.590;2022-07-23T15:12:50;25.20;93.70
29849;DHT22;16728;50.832;5.590;2022-07-23T15:15:52;25.20;94.00
29849;DHT22;16728;50.832;5.590;2022-07-23T15:18:57;25.20;93.80
29849;DHT22;16728;50.832;5.590;2022-07-23T15:21:59;25.30;94.50
29849;DHT22;16728;50.832;5.590;2022-07-23T15:25:03;25.40;94.40
29849;DHT22;16728;50.832;5.590;2022-07-23T15:28:06;25.40;94.20
29849;DHT22;16728;50.832;5.590;2022-07-23T15:31:09;25.30;94.10
29849;DHT22;16728;50.832;5.590;2022-07-23T15:34:12;25.30;94.60
29849;DHT22;16728;50.832;5.590;2022-07-23T15:37:13;25.30;94.50
29849;DHT22;16728;50.832;5.590;2022-07-23T15:40:15;25.30;94.70
29849;DHT22;16728;50.832;5.590;2022-07-23T15:43:20;25.30;94.40
29849;DHT22;16728;50.832;5.590;2022-07-23T15:46:22;25.20;93.90
29849;DHT22;16728;50.832;5.590;2022-07-23T15:49:28;25.20;94.00
29849;DHT22;16728;50.832;5.590;2022-07-23T15:52:32;25.20;93.50
29849;DHT22;16728;50.832;5.590;2022-07-23T15:55:34;25.30;93.60
29849;DHT22;16728;50.832;5.590;2022-07-23T15:58:37;25.20;93.70
29849;DHT22;16728;50.832;5.590;2022-07-23T16:01:40;25.20;93.20
29849;DHT22;16728;50.832;5.590;2022-07-23T16:04:42;25.20;93.00
29849;DHT22;16728;50.832;5.590;2022-07-23T16:07:44;25.20;92.80
29849;DHT22;16728;50.832;5.590;2022-07-23T16:10:46;25.30;92.70
29849;DHT22;16728;50.832;5.590;2022-07-23T16:13:48;25.30;92.70
29849;DHT22;16728;50.832;5.590;2022-07-23T16:16:50;25.30;92.70
29849;DHT22;16728;50.832;5.590;2022-07-23T16:19:52;25.30;92.60
29849;DHT22;16728;50.832;5.590;2022-07-23T16:22:54;25.40;92.50
29849;DHT22;16728;50.832;5.590;2022-07-23T16:25:56;25.40;92.50
29849;DHT22;16728;50.832;5.590;2022-07-23T16:28:58;25.40;92.30
29849;DHT22;16728;50.832;5.590;2022-07-23T16:32:00;25.40;92.70
29849;DHT22;16728;50.832;5.590;2022-07-23T16:35:02;25.30;92.50
29849;DHT22;16728;50.832;5.590;2022-07-23T16:38:14;25.20;92.60
29849;DHT22;16728;50.832;5.590;2022-07-23T16:41:16;25.30;92.80
29849;DHT22;16728;50.832;5.590;2022-07-23T16:44:18;25.30;92.80
29849;DHT22;16728;50.832;5.590;2022-07-23T16:47:45;25.40;92.80
29849;DHT22;16728;50.832;5.590;2022-07-23T16:54:00;25.30;92.50
29849;DHT22;16728;50.832;5.590;2022-07-23T16:57:02;25.20;92.70
29849;DHT22;16728;50.832;5.590;2022-07-23T17:00:05;25.20;92.80
29849;DHT22;16728;50.832;5.590;2022-07-23T17:03:09;25.20;92.60
29849;DHT22;16728;50.832;5.590;2022-07-23T17:06:11;25.30;92.80
29849;DHT22;16728;50.832;5.590;2022-07-23T17:12:23;25.20;92.20
29849;DHT22;16728;50.832;5.590;2022-07-23T17:15:25;25.20;92.50
29849;DHT22;16728;50.832;5.590;2022-07-23T17:18:27;25.10;92.50
29849;DHT22;16728;50.832;5.590;2022-07-23T17:21:29;25.20;92.50
29849;DHT22;16728;50.832;5.590;2022-07-23T17:24:33;25.10;92.20
29849;DHT22;16728;50.832;5.590;2022-07-23T17:27:36;25.10;92.30
29849;DHT22;16728;50.832;5.590;2022-07-23T17:30:38;25.10;92.60
29849;DHT22;16728;50.832;5.590;2022-07-23T17:33:40;25.20;92.50
29849;DHT22;16728;50.832;5.590;2022-07-23T17:36:42;25.20;92.70
29849;DHT22;16728;50.832;5.590;2022-07-23T17:39:44;25.20;92.40
29849;DHT22;16728;50.832;5.590;2022-07-23T17:42:45;25.20;92.50
29849;DHT22;16728;50.832;5.590;2022-07-23T17:45:47;25.20;92.40
29849;DHT22;16728;50.832;5.590;2022-07-23T17:48:49;25.20;92.50
29849;DHT22;16728;50.832;5.590;2022-07-23T17:51:51;25.20;92.60
29849;DHT22;16728;50.832;5.590;2022-07-23T17:54:53;25.20;92.50
29849;DHT22;16728;50.832;5.590;2022-07-23T17:57:55;25.10;92.20
29849;DHT22;16728;50.832;5.590;2022-07-23T18:00:59;25.00;92.10
29849;DHT22;16728;50.832;5.590;2022-07-23T18:04:02;25.00;92.20
29849;DHT22;16728;50.832;5.590;2022-07-23T18:07:04;25.00;92.60
29849;DHT22;16728;50.832;5.590;2022-07-23T18:10:06;25.00;92.90
29849;DHT22;16728;50.832;5.590;2022-07-23T18:13:08;24.90;93.10
29849;DHT22;16728;50.832;5.590;2022-07-23T18:16:10;25.00;93.10
29849;DHT22;16728;50.832;5.590;2022-07-23T18:19:12;25.00;92.80
29849;DHT22;16728;50.832;5.590;2022-07-23T18:22:14;25.00;93.00
29849;DHT22;16728;50.832;5.590;2022-07-23T18:25:17;24.90;93.10
29849;DHT22;16728;50.832;5.590;2022-07-23T18:28:19;24.90;93.20
29849;DHT22;16728;50.832;5.590;2022-07-23T18:31:20;24.90;93.10
29849;DHT22;16728;50.832;5.590;2022-07-23T18:34:23;24.90;93.00
29849;DHT22;16728;50.832;5.590;2022-07-23T18:37:25;24.90;93.10
29849;DHT22;16728;50.832;5.590;2022-07-23T18:40:38;24.90;93.30
29849;DHT22;16728;50.832;5.590;2022-07-23T18:43:41;24.80;93.60
29849;DHT22;16728;50.832;5.590;2022-07-23T18:46:43;24.70;93.90
29849;DHT22;16728;50.832;5.590;2022-07-23T18:49:46;24.70;93.90
29849;DHT22;16728;50.832;5.590;2022-07-23T18:52:48;24.60;94.20
29849;DHT22;16728;50.832;5.590;2022-07-23T18:55:50;24.60;94.10
29849;DHT22;16728;50.832;5.590;2022-07-23T18:58:52;24.60;94.50
29849;DHT22;16728;50.832;5.590;2022-07-23T19:01:53;24.50;94.80
29849;DHT22;16728;50.832;5.590;2022-07-23T19:04:55;24.50;95.10
29849;DHT22;16728;50.832;5.590;2022-07-23T19:07:57;24.50;95.60
29849;DHT22;16728;50.832;5.590;2022-07-23T19:10:59;24.50;95.80
29849;DHT22;16728;50.832;5.590;2022-07-23T19:14:01;24.40;96.10
29849;DHT22;16728;50.832;5.590;2022-07-23T19:17:07;24.40;96.50
29849;DHT22;16728;50.832;5.590;2022-07-23T19:20:10;24.40;96.80
29849;DHT22;16728;50.832;5.590;2022-07-23T19:23:13;24.30;96.70
29849;DHT22;16728;50.832;5.590;2022-07-23T19:26:15;24.30;97.00
29849;DHT22;16728;50.832;5.590;2022-07-23T19:29:17;24.30;97.40
29849;DHT22;16728;50.832;5.590;2022-07-23T19:32:19;24.20;97.70
29849;DHT22;16728;50.832;5.590;2022-07-23T19:35:21;24.10;97.80
29849;DHT22;16728;50.832;5.590;2022-07-23T19:38:23;24.10;98.00
29849;DHT22;16728;50.832;5.590;2022-07-23T19:41:25;24.00;98.50
29849;DHT22;16728;50.832;5.590;2022-07-23T19:44:27;23.90;97.90
29849;DHT22;16728;50.832;5.590;2022-07-23T19:47:28;23.90;97.90
29849;DHT22;16728;50.832;5.590;2022-07-23T19:50:31;23.90;98.40
29849;DHT22;16728;50.832;5.590;2022-07-23T19:53:33;23.90;98.70